Time;durP1;ratioP1;P1;durP2;ratioP2;P2;SDS_P1;SDS_P2;PMS_P1;PMS_P2;Temp;Humidity;BMP_temperature;BMP_pressure;BME280_temperature;BME280_humidity;BME280_pressure;Samples;Min_cycle;Max_cycle;Signal;HPM_P1;HPM_P2
2021/03/03 00:01:15;;;;;;;0.55;0.35;;;7.60;51.80;;;;;;4844893;29;20137;-74
2021/03/03 00:03:41;;;;;;;4.22;0.60;;;7.50;51.90;;;;;;4843844;29;20045;-73
2021/03/03 00:06:07;;;;;;;0.45;0.22;;;7.50;51.80;;;;;;4862575;29;20065;-73
2021/03/03 00:08:33;;;;;;;0.40;0.30;;;7.50;51.90;;;;;;4862033;29;20033;-73
2021/03/03 00:10:59;;;;;;;1.23;0.40;;;7.50;51.90;;;;;;4863700;29;20075;-73
2021/03/03 00:13:25;;;;;;;1.50;0.40;;;7.40;51.80;;;;;;4863596;29;20041;-72
2021/03/03 00:15:50;;;;;;;0.30;0.30;;;7.40;51.90;;;;;;4863146;29;20041;-72
2021/03/03 00:18:16;;;;;;;0.63;0.40;;;7.40;51.90;;;;;;4863102;29;20045;-72
2021/03/03 00:20:42;;;;;;;0.40;0.40;;;7.40;51.90;;;;;;4863511;29;20049;-72
2021/03/03 00:23:08;;;;;;;1.23;0.65;;;7.40;52.00;;;;;;4846682;29;20052;-74
2021/03/03 00:25:34;;;;;;;0.70;0.40;;;7.30;51.90;;;;;;4863699;29;20128;-74
2021/03/03 00:28:00;;;;;;;0.73;0.32;;;7.30;51.90;;;;;;4863259;29;20041;-72
2021/03/03 00:30:26;;;;;;;0.43;0.40;;;7.30;51.90;;;;;;4861705;29;20539;-72
2021/03/03 00:32:52;;;;;;;0.57;0.35;;;7.20;51.80;;;;;;4861919;29;20033;-73
2021/03/03 00:35:18;;;;;;;0.85;0.40;;;7.20;51.80;;;;;;4862858;29;20422;-73
2021/03/03 00:37:44;;;;;;;1.17;0.60;;;7.20;51.80;;;;;;4862793;29;20533;-73
2021/03/03 00:40:10;;;;;;;0.55;0.40;;;7.20;51.80;;;;;;4862957;29;20034;-73
2021/03/03 00:42:36;;;;;;;0.70;0.55;;;7.20;51.70;;;;;;4862946;29;20571;-73
2021/03/03 00:45:04;;;;;;;0.95;0.50;;;7.10;51.70;;;;;;4862705;29;20049;-73
2021/03/03 00:47:30;;;;;;;1.00;0.50;;;7.10;51.70;;;;;;4877334;29;20475;-74
2021/03/03 00:49:59;;;;;;;1.30;0.50;;;7.10;51.60;;;;;;4861587;29;20124;-75
2021/03/03 00:52:28;;;;;;;0.70;0.50;;;7.10;51.50;;;;;;4861473;29;20072;-74
2021/03/03 00:54:55;;;;;;;1.63;0.52;;;7.10;51.50;;;;;;4861621;29;20052;-71
2021/03/03 00:57:22;;;;;;;1.38;0.80;;;7.10;51.40;;;;;;4862766;29;20132;-74
2021/03/03 00:59:47;;;;;;;0.88;0.50;;;7.00;51.30;;;;;;4862724;29;20136;-76
2021/03/03 01:02:14;;;;;;;1.13;0.68;;;7.00;51.30;;;;;;4861360;29;20097;-73
2021/03/03 01:04:40;;;;;;;0.55;0.50;;;7.00;51.30;;;;;;4860831;29;20574;-75
2021/03/03 01:07:06;;;;;;;1.15;0.40;;;7.00;51.30;;;;;;4861278;29;20226;-72
2021/03/03 01:09:33;;;;;;;0.70;0.50;;;7.00;51.20;;;;;;4861072;29;20049;-73
2021/03/03 01:11:59;;;;;;;0.47;0.30;;;6.90;51.30;;;;;;4862360;29;20045;-73
2021/03/03 01:14:26;;;;;;;1.08;0.50;;;7.00;51.30;;;;;;4876530;29;20033;-74
2021/03/03 01:16:53;;;;;;;0.50;0.50;;;6.90;51.30;;;;;;4861055;29;20132;-72
2021/03/03 01:19:29;;;;;;;1.50;0.35;;;6.90;51.20;;;;;;4860700;29;20494;-73
2021/03/03 01:21:55;;;;;;;0.73;0.40;;;6.90;51.30;;;;;;4862177;29;20037;-73
2021/03/03 01:24:21;;;;;;;1.27;0.50;;;6.90;51.30;;;;;;4861865;29;20069;-73
2021/03/03 01:26:47;;;;;;;2.15;0.40;;;6.90;51.30;;;;;;4861903;29;20121;-71
2021/03/03 01:29:13;;;;;;;0.73;0.40;;;6.90;51.30;;;;;;4862158;29;20037;-72
2021/03/03 01:31:39;;;;;;;0.43;0.43;;;6.90;51.30;;;;;;4862016;29;20076;-72
2021/03/03 01:34:05;;;;;;;0.50;0.50;;;6.90;51.40;;;;;;4861968;29;20045;-72
2021/03/03 01:36:30;;;;;;;1.48;0.63;;;6.90;51.40;;;;;;4861944;29;20384;-72
2021/03/03 01:38:56;;;;;;;0.88;0.55;;;6.90;51.40;;;;;;4861600;29;20048;-74
2021/03/03 01:41:22;;;;;;;1.52;0.47;;;6.90;51.40;;;;;;4862102;29;20037;-71
2021/03/03 01:43:48;;;;;;;1.85;0.95;;;6.90;52.10;;;;;;4861556;29;20125;-73
2021/03/03 01:46:15;;;;;;;1.23;0.65;;;6.90;51.50;;;;;;4861604;29;20574;-73
2021/03/03 01:48:41;;;;;;;0.85;0.47;;;6.90;51.50;;;;;;4861489;29;20215;-74
2021/03/03 01:51:08;;;;;;;1.45;0.55;;;6.90;51.50;;;;;;4861490;29;20050;-73
2021/03/03 01:53:34;;;;;;;0.30;0.30;;;6.90;51.50;;;;;;4860687;29;20049;-73
2021/03/03 01:56:00;;;;;;;0.60;0.50;;;6.80;51.50;;;;;;4860785;29;20045;-72
2021/03/03 01:58:26;;;;;;;2.75;0.60;;;6.80;51.50;;;;;;4861321;29;20045;-72
2021/03/03 02:00:52;;;;;;;0.85;0.60;;;6.80;51.50;;;;;;4860305;29;20515;-72
2021/03/03 02:03:18;;;;;;;0.55;0.50;;;6.80;51.60;;;;;;4844495;29;20081;-73
2021/03/03 02:05:44;;;;;;;1.08;0.47;;;6.80;51.60;;;;;;4860927;29;20037;-73
2021/03/03 02:08:15;;;;;;;0.80;0.45;;;6.80;51.60;;;;;;4860461;29;20467;-73
2021/03/03 02:10:43;;;;;;;1.67;0.60;;;6.80;51.60;;;;;;4861079;29;20422;-72
2021/03/03 02:13:29;;;;;;;1.25;0.60;;;6.80;51.70;;;;;;4859796;29;20049;-72
2021/03/03 02:15:57;;;;;;;1.00;0.70;;;6.80;51.60;;;;;;4860781;29;20042;-73
2021/03/03 02:18:25;;;;;;;1.95;0.52;;;6.80;51.60;;;;;;4859264;29;20414;-72
2021/03/03 02:21:00;;;;;;;1.00;0.50;;;6.80;51.80;;;;;;4859936;29;20048;-73
2021/03/03 02:23:49;;;;;;;0.55;0.55;;;6.80;51.70;;;;;;4859871;29;20510;-71
2021/03/03 02:26:17;;;;;;;3.00;0.70;;;6.80;51.60;;;;;;4859054;29;20411;-72
2021/03/03 02:28:45;;;;;;;1.08;0.50;;;6.80;51.60;;;;;;4859726;29;20162;-73
2021/03/03 02:31:14;;;;;;;1.83;0.70;;;6.80;51.50;;;;;;4860823;29;20049;-72
2021/03/03 02:33:42;;;;;;;1.02;0.60;;;6.70;51.50;;;;;;4859647;29;20038;-74
2021/03/03 02:36:10;;;;;;;1.27;0.52;;;6.70;51.50;;;;;;4860884;29;20494;-73
2021/03/03 02:38:39;;;;;;;1.60;0.70;;;6.70;51.40;;;;;;4860492;29;20564;-72
2021/03/03 02:41:08;;;;;;;0.55;0.50;;;6.70;51.40;;;;;;4859541;29;20052;-72
2021/03/03 02:43:35;;;;;;;2.72;0.55;;;6.70;51.40;;;;;;4859537;29;20041;-72
2021/03/03 02:46:03;;;;;;;1.05;0.57;;;6.70;51.40;;;;;;4860739;29;20041;-73
2021/03/03 02:48:29;;;;;;;1.92;0.60;;;6.70;51.40;;;;;;4859609;29;20074;-73
2021/03/03 02:50:55;;;;;;;1.33;0.80;;;6.70;51.40;;;;;;4859311;29;20038;-72
2021/03/03 02:53:21;;;;;;;3.03;0.57;;;6.60;51.30;;;;;;4859137;29;20132;-74
2021/03/03 02:55:47;;;;;;;1.85;0.70;;;6.60;51.30;;;;;;4874811;29;20038;-73
2021/03/03 02:58:13;;;;;;;0.60;0.43;;;6.60;51.40;;;;;;4860743;29;20072;-72
2021/03/03 03:00:41;;;;;;;1.30;0.30;;;6.60;51.40;;;;;;4859149;29;20049;-73
2021/03/03 03:03:25;;;;;;;1.35;0.70;;;6.60;51.40;;;;;;4859183;29;20048;-72
2021/03/03 03:06:02;;;;;;;0.90;0.60;;;6.60;51.40;;;;;;4860639;29;20053;-73
2021/03/03 03:08:32;;;;;;;1.60;0.60;;;6.60;51.30;;;;;;4860425;29;20076;-73
2021/03/03 03:11:03;;;;;;;1.92;0.52;;;6.50;51.30;;;;;;4860104;29;20059;-73
2021/03/03 03:13:33;;;;;;;1.73;0.60;;;6.50;51.30;;;;;;4859328;29;20525;-73
2021/03/03 03:16:01;;;;;;;1.58;0.77;;;6.50;51.30;;;;;;4859062;29;20047;-73
2021/03/03 03:18:32;;;;;;;1.13;0.50;;;6.50;51.30;;;;;;4859737;29;20075;-74
2021/03/03 03:20:58;;;;;;;1.02;0.57;;;6.50;51.30;;;;;;4860080;29;20041;-73
2021/03/03 03:23:26;;;;;;;0.50;0.50;;;6.50;51.30;;;;;;4843963;29;20463;-72
2021/03/03 03:25:56;;;;;;;1.13;0.50;;;6.50;51.30;;;;;;4858619;29;20071;-73
2021/03/03 03:28:23;;;;;;;0.43;0.38;;;6.50;51.30;;;;;;4859099;29;20037;-72
2021/03/03 03:30:53;;;;;;;1.00;0.63;;;6.50;51.30;;;;;;4860364;29;20502;-76
2021/03/03 03:33:20;;;;;;;0.38;0.38;;;6.40;51.20;;;;;;4861986;29;20045;-75
2021/03/03 03:35:47;;;;;;;2.25;0.60;;;6.50;51.30;;;;;;4845596;29;20529;-73
2021/03/03 03:38:13;;;;;;;0.57;0.40;;;6.40;51.20;;;;;;4862969;29;20109;-73
2021/03/03 03:40:39;;;;;;;0.80;0.43;;;6.50;51.20;;;;;;4863447;29;20053;-72
2021/03/03 03:43:08;;;;;;;0.90;0.40;;;6.40;51.20;;;;;;4863515;29;20033;-77
2021/03/03 03:45:35;;;;;;;0.85;0.55;;;6.40;51.10;;;;;;4862473;29;20138;-75
2021/03/03 03:48:02;;;;;;;1.00;0.40;;;6.40;51.10;;;;;;4861047;29;20491;-78
2021/03/03 03:50:28;;;;;;;0.73;0.50;;;6.40;51.10;;;;;;4863284;29;20534;-75
2021/03/03 03:52:56;;;;;;;1.48;0.60;;;6.40;51.10;;;;;;4863512;29;20105;-77
2021/03/03 03:55:37;;;;;;;1.10;0.50;;;6.40;51.10;;;;;;4861860;29;20052;-77
2021/03/03 03:58:04;;;;;;;1.17;0.50;;;6.40;51.10;;;;;;4846998;29;20060;-78
2021/03/03 04:00:31;;;;;;;0.73;0.47;;;6.40;51.00;;;;;;4863168;29;20041;-75
2021/03/03 04:02:58;;;;;;;1.38;0.63;;;6.40;51.00;;;;;;4863338;29;20520;-83
2021/03/03 04:05:25;;;;;;;0.63;0.60;;;6.40;50.90;;;;;;4862137;29;20530;-80
2021/03/03 04:07:52;;;;;;;0.70;0.47;;;6.40;50.90;;;;;;4862097;29;20147;-74
2021/03/03 04:10:21;;;;;;;0.47;0.40;;;6.40;50.90;;;;;;4861540;29;20037;-75
2021/03/03 04:12:47;;;;;;;1.45;0.65;;;6.40;50.90;;;;;;4845818;29;20033;-73
2021/03/03 04:15:14;;;;;;;1.90;0.90;;;6.40;50.80;;;;;;4862488;29;20134;-74
2021/03/03 04:17:41;;;;;;;0.50;0.50;;;6.40;50.80;;;;;;4862936;29;20089;-75
2021/03/03 04:20:08;;;;;;;0.70;0.50;;;6.40;50.80;;;;;;4860154;29;20089;-79
2021/03/03 04:22:35;;;;;;;1.25;0.70;;;6.40;50.70;;;;;;4858249;29;20041;-79
2021/03/03 04:25:02;;;;;;;0.65;0.50;;;6.40;50.70;;;;;;4862665;29;20490;-78
2021/03/03 04:27:27;;;;;;;0.82;0.50;;;6.40;50.70;;;;;;4861446;29;20042;-78
2021/03/03 04:29:53;;;;;;;1.13;0.65;;;6.40;50.60;;;;;;4861343;29;20048;-79
2021/03/03 04:32:19;;;;;;;0.82;0.50;;;6.40;50.60;;;;;;4861320;29;20100;-81
2021/03/03 04:34:45;;;;;;;0.98;0.55;;;6.40;50.60;;;;;;4862319;29;20097;-77
2021/03/03 04:37:11;;;;;;;2.80;0.55;;;6.40;50.60;;;;;;4862542;29;20053;-84
2021/03/03 04:39:37;;;;;;;1.10;1.00;;;6.40;50.50;;;;;;4861646;29;20041;-77
2021/03/03 04:42:04;;;;;;;0.80;0.57;;;6.40;50.40;;;;;;4861687;29;20045;-77
2021/03/03 04:44:31;;;;;;;2.35;0.73;;;6.40;50.30;;;;;;4858913;29;20129;-75
2021/03/03 04:46:57;;;;;;;1.52;0.70;;;6.40;50.30;;;;;;4862206;29;20478;-78
2021/03/03 04:49:23;;;;;;;0.85;0.60;;;6.40;50.20;;;;;;4876353;29;20033;-77
2021/03/03 04:51:49;;;;;;;0.90;0.60;;;6.40;50.20;;;;;;4862100;29;20096;-77
2021/03/03 04:54:15;;;;;;;0.80;0.50;;;6.40;50.10;;;;;;4862416;29;20123;-77
2021/03/03 04:56:41;;;;;;;0.82;0.60;;;6.40;50.10;;;;;;4862098;29;20055;-77
2021/03/03 04:59:07;;;;;;;1.67;0.80;;;6.40;50.10;;;;;;4862205;29;20124;-76
2021/03/03 05:01:33;;;;;;;1.83;0.88;;;6.40;50.00;;;;;;4860890;29;20132;-78
2021/03/03 05:03:59;;;;;;;1.25;0.80;;;6.50;50.00;;;;;;4861132;29;20479;-74
2021/03/03 05:06:26;;;;;;;1.73;0.63;;;6.40;49.90;;;;;;4862152;29;20512;-74
2021/03/03 05:08:52;;;;;;;0.90;0.63;;;6.50;50.00;;;;;;4861261;29;20414;-72
2021/03/03 05:11:18;;;;;;;0.90;0.65;;;6.50;49.90;;;;;;4862533;29;20045;-74
2021/03/03 05:13:44;;;;;;;1.38;0.80;;;6.50;49.90;;;;;;4860942;29;20608;-78
2021/03/03 05:16:10;;;;;;;0.98;0.68;;;6.50;49.90;;;;;;4862413;29;20039;-73
2021/03/03 05:18:36;;;;;;;1.58;0.70;;;6.50;49.70;;;;;;4845382;29;20518;-72
2021/03/03 05:21:02;;;;;;;0.63;0.50;;;6.60;49.70;;;;;;4861836;29;20082;-71
2021/03/03 05:23:32;;;;;;;0.75;0.60;;;6.60;49.60;;;;;;4861870;29;20491;-73
2021/03/03 05:26:00;;;;;;;1.50;0.90;;;6.60;49.60;;;;;;4860781;29;20052;-72
2021/03/03 05:28:26;;;;;;;1.85;0.90;;;6.60;49.50;;;;;;4860614;29;20360;-71
2021/03/03 05:30:52;;;;;;;1.70;1.00;;;6.60;49.40;;;;;;4861548;29;20071;-70
2021/03/03 05:33:30;;;;;;;1.35;0.90;;;6.70;49.40;;;;;;4876097;29;20056;-72
2021/03/03 05:35:58;;;;;;;1.10;1.00;;;7.00;49.40;;;;;;4845177;29;20033;-72
2021/03/03 05:38:24;;;;;;;1.67;0.80;;;7.30;49.30;;;;;;4860519;29;20046;-71
2021/03/03 05:40:52;;;;;;;1.15;0.80;;;7.70;48.90;;;;;;4860176;29;20452;-72
2021/03/03 05:43:20;;;;;;;1.38;1.08;;;8.10;48.40;;;;;;4860413;29;20242;-73
2021/03/03 05:45:47;;;;;;;2.10;1.30;;;8.40;47.80;;;;;;4861051;29;20085;-72
2021/03/03 05:48:22;;;;;;;2.47;0.93;;;8.80;47.50;;;;;;4861566;29;20498;-71
2021/03/03 05:50:53;;;;;;;2.05;1.02;;;9.20;46.90;;;;;;4860726;29;20037;-72
2021/03/03 05:53:21;;;;;;;1.85;1.08;;;9.60;46.60;;;;;;4859141;29;20034;-73
2021/03/03 05:55:47;;;;;;;2.63;1.25;;;9.90;46.00;;;;;;4861391;29;20452;-72
2021/03/03 05:58:13;;;;;;;2.20;1.13;;;10.30;45.80;;;;;;4859769;29;20427;-73
2021/03/03 06:00:39;;;;;;;2.55;1.30;;;10.70;45.50;;;;;;4861082;29;20038;-72
2021/03/03 06:03:06;;;;;;;2.83;1.05;;;11.20;45.10;;;;;;4861132;29;20045;-73
2021/03/03 06:05:32;;;;;;;2.85;0.90;;;11.70;44.20;;;;;;4844536;29;20090;-72
2021/03/03 06:07:59;;;;;;;0.93;0.82;;;12.20;43.60;;;;;;4859956;29;20042;-72
2021/03/03 06:10:25;;;;;;;2.67;1.20;;;12.70;43.20;;;;;;4860237;29;20046;-71
2021/03/03 06:12:51;;;;;;;2.03;1.40;;;13.10;49.60;;;;;;4861227;29;20399;-71
2021/03/03 06:15:17;;;;;;;3.10;1.30;;;13.60;49.40;;;;;;4861290;29;20037;-72
2021/03/03 06:17:43;;;;;;;1.77;1.15;;;14.10;49.70;;;;;;4859790;29;20045;-72
2021/03/03 06:20:11;;;;;;;2.92;1.27;;;14.50;46.50;;;;;;4844334;29;20033;-76
2021/03/03 06:22:37;;;;;;;1.80;0.90;;;14.90;46.20;;;;;;4859811;29;20136;-72
2021/03/03 06:25:17;;;;;;;3.50;1.55;;;15.30;44.90;;;;;;4859846;29;20045;-73
2021/03/03 06:27:43;;;;;;;22.60;13.13;;;15.70;43.20;;;;;;4861149;29;20042;-72
2021/03/03 06:30:12;;;;;;;5.95;3.05;;;16.00;43.00;;;;;;4861121;29;20045;-75
2021/03/03 06:33:03;;;;;;;1.92;1.27;;;16.40;43.20;;;;;;4860946;29;20052;-74
2021/03/03 06:35:44;;;;;;;2.65;1.88;;;16.80;41.80;;;;;;4844271;29;20041;-75
2021/03/03 06:38:15;;;;;;;3.78;1.20;;;17.10;40.50;;;;;;4859677;29;20093;-75
2021/03/03 06:40:54;;;;;;;1.45;1.10;;;17.40;40.30;;;;;;4844175;29;20048;-71
2021/03/03 06:43:25;;;;;;;1.52;1.20;;;17.60;39.30;;;;;;4859325;29;20033;-73
2021/03/03 06:45:53;;;;;;;1.33;1.00;;;17.70;39.10;;;;;;4859238;29;20506;-71
2021/03/03 06:48:38;;;;;;;2.35;1.00;;;17.70;38.60;;;;;;4860572;29;20506;-71
2021/03/03 06:51:27;;;;;;;1.90;1.35;;;17.80;38.40;;;;;;4860939;29;20073;-72
2021/03/03 06:53:55;;;;;;;1.23;0.85;;;17.90;37.90;;;;;;4860719;29;20268;-74
2021/03/03 06:56:34;;;;;;;4.13;1.30;;;18.00;37.80;;;;;;4859931;29;20048;-70
2021/03/03 06:59:09;;;;;;;2.35;1.13;;;18.10;37.50;;;;;;4860519;29;20052;-70
2021/03/03 07:01:35;;;;;;;1.60;0.80;;;18.10;36.50;;;;;;4860339;29;20041;-69
2021/03/03 07:04:01;;;;;;;3.20;0.75;;;18.10;35.80;;;;;;4860018;29;20048;-75
2021/03/03 07:06:33;;;;;;;1.42;0.80;;;17.90;35.20;;;;;;4860064;29;20041;-71
2021/03/03 07:08:59;;;;;;;2.72;1.15;;;17.70;34.80;;;;;;4860594;29;20522;-72
2021/03/03 07:11:31;;;;;;;2.75;1.25;;;17.60;34.80;;;;;;4859796;29;20074;-71
2021/03/03 07:13:57;;;;;;;3.53;1.00;;;17.50;34.60;;;;;;4860436;29;20506;-71
2021/03/03 07:16:23;;;;;;;2.05;1.02;;;17.40;35.60;;;;;;4860309;29;20070;-69
2021/03/03 07:18:49;;;;;;;1.25;0.82;;;17.70;37.90;;;;;;4858956;29;20049;-71
2021/03/03 07:21:36;;;;;;;1.73;0.90;;;17.80;37.60;;;;;;4843395;29;20494;-71
2021/03/03 07:24:02;;;;;;;1.88;1.25;;;17.70;35.50;;;;;;4858773;29;20037;-69
2021/03/03 07:26:29;;;;;;;4.45;1.20;;;17.50;35.00;;;;;;4858615;29;20375;-72
2021/03/03 07:28:56;;;;;;;2.35;1.02;;;17.40;36.50;;;;;;4860005;29;20101;-71
2021/03/03 07:31:23;;;;;;;1.50;1.10;;;17.40;36.60;;;;;;4858670;29;20057;-70
2021/03/03 07:33:49;;;;;;;1.98;1.00;;;17.40;35.80;;;;;;4858893;29;20060;-70
2021/03/03 07:36:17;;;;;;;2.45;0.73;;;17.30;35.30;;;;;;4860090;29;20047;-71
2021/03/03 07:38:48;;;;;;;3.13;0.95;;;17.10;34.80;;;;;;4859877;29;20421;-70
2021/03/03 07:41:16;;;;;;;2.15;1.02;;;17.10;35.30;;;;;;4859863;29;20422;-70
2021/03/03 07:43:48;;;;;;;1.70;0.90;;;17.10;35.40;;;;;;4858802;29;20069;-70
2021/03/03 07:46:15;;;;;;;7.55;4.47;;;17.00;35.20;;;;;;4858166;29;20144;-71
2021/03/03 07:48:44;;;;;;;4.57;2.33;;;17.10;35.20;;;;;;4858304;29;20033;-70
2021/03/03 07:51:10;;;;;;;2.90;1.20;;;17.00;35.10;;;;;;4859685;29;20046;-71
2021/03/03 07:53:40;;;;;;;3.40;1.20;;;17.00;34.80;;;;;;4859587;29;20036;-71
2021/03/03 07:56:11;;;;;;;1.63;1.08;;;16.90;34.50;;;;;;4859957;29;20042;-71
2021/03/03 07:58:38;;;;;;;1.15;0.90;;;16.80;34.90;;;;;;4873979;29;20054;-71
2021/03/03 08:01:09;;;;;;;1.00;0.63;;;16.80;35.10;;;;;;4859800;29;20045;-71
2021/03/03 08:03:46;;;;;;;2.60;0.88;;;16.70;35.00;;;;;;4860221;29;20041;-71
2021/03/03 08:06:28;;;;;;;0.90;0.63;;;16.60;34.80;;;;;;4858784;29;20037;-71
2021/03/03 08:09:06;;;;;;;1.85;0.75;;;16.50;35.20;;;;;;4858337;29;20093;-71
2021/03/03 08:11:33;;;;;;;1.75;0.80;;;16.40;35.40;;;;;;4859998;29;20042;-69
2021/03/03 08:14:00;;;;;;;1.10;0.80;;;16.30;35.40;;;;;;4858602;29;20049;-70
2021/03/03 08:16:27;;;;;;;2.55;0.90;;;16.20;35.60;;;;;;4860462;29;20036;-71
2021/03/03 08:18:56;;;;;;;2.95;0.82;;;16.10;35.90;;;;;;4877175;29;20049;-70
2021/03/03 08:21:24;;;;;;;2.25;0.93;;;15.90;36.10;;;;;;4861798;29;20569;-70
2021/03/03 08:23:52;;;;;;;1.83;0.93;;;15.90;36.50;;;;;;4863012;29;20034;-70
2021/03/03 08:26:18;;;;;;;4.22;0.90;;;15.70;36.50;;;;;;4861795;29;20045;-69
2021/03/03 08:28:48;;;;;;;4.03;0.82;;;15.60;36.50;;;;;;4862814;29;20045;-71
2021/03/03 08:31:14;;;;;;;1.48;0.65;;;15.40;36.70;;;;;;4863006;29;20065;-70
2021/03/03 08:33:50;;;;;;;1.23;0.77;;;15.20;37.00;;;;;;4846294;29;20034;-70
2021/03/03 08:36:22;;;;;;;1.65;0.70;;;15.00;37.20;;;;;;4862827;29;20049;-71
2021/03/03 08:38:54;;;;;;;4.57;1.13;;;14.80;37.50;;;;;;4846269;29;20045;-72
2021/03/03 08:41:26;;;;;;;1.48;0.77;;;14.60;37.80;;;;;;4862840;29;20042;-70
2021/03/03 08:44:03;;;;;;;2.40;0.70;;;14.50;37.80;;;;;;4862949;29;20045;-69
2021/03/03 08:46:29;;;;;;;4.35;1.02;;;14.30;38.10;;;;;;4861465;29;20105;-71
2021/03/03 08:48:55;;;;;;;1.05;0.80;;;14.10;38.60;;;;;;4846127;29;20490;-71
2021/03/03 08:51:29;;;;;;;1.38;0.75;;;14.00;39.10;;;;;;4862795;29;20182;-71
2021/03/03 08:53:59;;;;;;;1.15;0.80;;;13.90;39.10;;;;;;4861512;29;20046;-71
2021/03/03 08:56:39;;;;;;;2.58;0.77;;;13.80;39.40;;;;;;4861720;29;20048;-70
2021/03/03 08:59:09;;;;;;;2.40;0.90;;;13.60;39.60;;;;;;4861388;29;20092;-70
2021/03/03 09:01:51;;;;;;;1.85;0.90;;;13.50;39.80;;;;;;4860893;29;20046;-71
2021/03/03 09:04:18;;;;;;;1.95;0.90;;;13.30;40.10;;;;;;4845767;29;20033;-72
2021/03/03 09:06:52;;;;;;;1.48;0.95;;;13.20;40.00;;;;;;4861045;29;20052;-71
2021/03/03 09:09:19;;;;;;;1.48;0.90;;;13.20;40.30;;;;;;4846005;29;20045;-71
2021/03/03 09:11:46;;;;;;;2.08;1.15;;;13.10;40.60;;;;;;4862180;29;20043;-70
2021/03/03 09:14:13;;;;;;;3.50;1.10;;;13.00;40.90;;;;;;4862243;29;20050;-71
2021/03/03 09:17:02;;;;;;;3.13;1.10;;;12.90;41.40;;;;;;4861086;29;20479;-70
2021/03/03 09:19:30;;;;;;;2.97;1.13;;;12.80;41.30;;;;;;4861580;29;20041;-70
2021/03/03 09:21:56;;;;;;;1.95;0.85;;;12.80;41.40;;;;;;4862130;29;20456;-71
2021/03/03 09:24:23;;;;;;;1.42;0.80;;;12.70;41.50;;;;;;4860859;29;20041;-70
2021/03/03 09:26:49;;;;;;;0.90;0.68;;;12.70;41.40;;;;;;4861907;29;20040;-72
2021/03/03 09:29:31;;;;;;;1.85;1.00;;;12.60;41.40;;;;;;4861092;29;20056;-71
2021/03/03 09:31:58;;;;;;;2.75;0.80;;;12.50;42.50;;;;;;4860790;29;20080;-71
2021/03/03 09:34:24;;;;;;;1.30;0.80;;;12.50;42.40;;;;;;4862188;29;20037;-71
2021/03/03 09:36:58;;;;;;;3.45;0.70;;;12.50;42.60;;;;;;4861783;29;20033;-69
2021/03/03 09:39:25;;;;;;;3.75;0.70;;;12.50;42.50;;;;;;4860974;29;20045;-71
2021/03/03 09:41:58;;;;;;;1.75;0.80;;;12.30;43.40;;;;;;4861680;29;20037;-71
2021/03/03 09:44:25;;;;;;;1.20;0.60;;;12.30;42.90;;;;;;4861796;29;20115;-70
2021/03/03 09:46:57;;;;;;;1.27;0.77;;;12.20;43.20;;;;;;4860432;29;20029;-70
2021/03/03 09:49:31;;;;;;;1.77;0.82;;;12.10;43.20;;;;;;4860467;29;20052;-69
2021/03/03 09:51:59;;;;;;;2.63;1.00;;;12.00;43.20;;;;;;4861352;29;20044;-72
2021/03/03 09:54:36;;;;;;;2.42;0.98;;;11.90;43.40;;;;;;4861363;29;20053;-71
2021/03/03 09:57:20;;;;;;;3.63;1.10;;;11.80;43.60;;;;;;4875710;29;20089;-68
2021/03/03 09:59:48;;;;;;;3.17;1.02;;;11.80;43.80;;;;;;4861391;29;20041;-69
2021/03/03 10:02:23;;;;;;;3.58;1.30;;;11.60;43.70;;;;;;4861091;29;20056;-70
2021/03/03 10:04:51;;;;;;;3.20;1.05;;;11.60;44.30;;;;;;4860074;29;20070;-70
2021/03/03 10:07:21;;;;;;;1.92;1.35;;;11.50;44.60;;;;;;4861643;29;20406;-70
2021/03/03 10:09:58;;;;;;;12.85;7.43;;;11.50;44.80;;;;;;4860135;29;20053;-71
2021/03/03 10:12:35;;;;;;;9.70;7.00;;;11.50;44.90;;;;;;4844533;29;20029;-72
2021/03/03 10:15:05;;;;;;;5.50;3.28;;;11.50;45.00;;;;;;4859895;29;20038;-72
2021/03/03 10:17:37;;;;;;;2.78;2.30;;;11.50;45.10;;;;;;4860944;29;20538;-72
2021/03/03 10:20:07;;;;;;;2.85;1.30;;;11.40;45.20;;;;;;4844892;29;20487;-72
2021/03/03 10:22:34;;;;;;;2.42;1.25;;;11.40;45.30;;;;;;4861104;29;20444;-71
2021/03/03 10:25:06;;;;;;;2.25;1.20;;;11.40;45.60;;;;;;4859862;29;20135;-74
2021/03/03 10:27:41;;;;;;;1.90;1.00;;;11.40;45.60;;;;;;4875193;29;20102;-74
2021/03/03 10:30:23;;;;;;;1.52;0.70;;;11.40;45.50;;;;;;4860029;29;20495;-74
2021/03/03 10:32:50;;;;;;;2.25;0.90;;;11.40;46.20;;;;;;4844375;29;20055;-77
2021/03/03 10:35:16;;;;;;;1.65;0.80;;;11.40;45.80;;;;;;4861073;29;20072;-74
2021/03/03 10:37:42;;;;;;;1.85;0.63;;;11.40;46.00;;;;;;4860568;29;20045;-73
2021/03/03 10:40:13;;;;;;;1.92;0.70;;;11.30;45.80;;;;;;4860255;29;20106;-72
2021/03/03 10:42:39;;;;;;;1.10;0.80;;;11.30;45.60;;;;;;4860557;29;20486;-71
2021/03/03 10:45:16;;;;;;;1.52;0.50;;;11.20;45.70;;;;;;4859560;29;20060;-71
2021/03/03 10:47:45;;;;;;;1.38;0.80;;;11.20;47.00;;;;;;4859331;29;20503;-70
2021/03/03 10:50:11;;;;;;;1.05;0.80;;;11.20;46.80;;;;;;4859173;29;20044;-71
2021/03/03 10:52:37;;;;;;;1.45;0.68;;;11.20;46.30;;;;;;4860690;29;20041;-70
2021/03/03 10:55:20;;;;;;;1.60;0.88;;;11.10;46.00;;;;;;4860627;29;20402;-69
2021/03/03 10:58:19;;;;;;;1.27;0.60;;;11.20;45.90;;;;;;4860291;29;20059;-70
2021/03/03 11:01:02;;;;;;;1.65;0.75;;;11.10;45.80;;;;;;4819808;29;20053;-70
2021/03/03 11:03:29;;;;;;;2.05;1.02;;;11.00;46.10;;;;;;4859177;29;20045;-72
2021/03/03 11:05:59;;;;;;;0.90;0.70;;;11.00;46.30;;;;;;4860175;29;20040;-70
2021/03/03 11:08:27;;;;;;;1.73;1.20;;;11.00;46.10;;;;;;4858826;29;20045;-72
2021/03/03 11:11:06;;;;;;;1.75;0.68;;;11.00;48.10;;;;;;4860097;29;20049;-71
2021/03/03 11:13:36;;;;;;;1.65;1.42;;;11.00;47.50;;;;;;4859440;29;20041;-70
2021/03/03 11:16:02;;;;;;;3.42;0.80;;;10.90;46.80;;;;;;4860065;29;20182;-71
2021/03/03 11:18:28;;;;;;;4.50;1.20;;;10.90;46.70;;;;;;4858813;29;20061;-72
2021/03/03 11:20:54;;;;;;;1.73;0.90;;;10.90;46.50;;;;;;4860389;29;20053;-73
2021/03/03 11:23:20;;;;;;;2.53;1.13;;;10.90;46.40;;;;;;4859053;29;20041;-72
2021/03/03 11:25:47;;;;;;;1.40;0.63;;;10.80;46.40;;;;;;4859021;29;20400;-72
2021/03/03 11:28:12;;;;;;;2.17;1.02;;;10.70;46.20;;;;;;4843735;29;20447;-71
2021/03/03 11:30:39;;;;;;;3.40;0.88;;;10.70;46.10;;;;;;4859955;29;20058;-70
2021/03/03 11:33:05;;;;;;;3.05;1.05;;;10.60;46.30;;;;;;4859814;29;20049;-69
2021/03/03 11:35:31;;;;;;;2.60;1.10;;;10.60;46.40;;;;;;4843260;29;20411;-71
2021/03/03 11:37:57;;;;;;;4.07;1.02;;;10.60;46.50;;;;;;4858949;29;20045;-71
2021/03/03 11:40:24;;;;;;;2.38;1.17;;;10.50;46.80;;;;;;4860263;29;20049;-72
2021/03/03 11:42:51;;;;;;;3.83;1.10;;;10.50;46.70;;;;;;4860037;29;20041;-71
2021/03/03 11:45:17;;;;;;;2.28;0.90;;;10.40;46.70;;;;;;4858634;29;20129;-71
2021/03/03 11:47:43;;;;;;;2.65;1.20;;;10.40;46.70;;;;;;4859843;29;20046;-71
2021/03/03 11:50:10;;;;;;;2.15;1.13;;;10.40;47.00;;;;;;4859883;29;20053;-70
2021/03/03 11:52:36;;;;;;;3.35;1.40;;;10.40;46.80;;;;;;4862479;29;20491;-71
2021/03/03 11:55:02;;;;;;;3.03;1.10;;;10.50;47.00;;;;;;4862246;29;20471;-71
2021/03/03 11:57:28;;;;;;;2.78;1.50;;;10.50;47.00;;;;;;4861848;29;20057;-72
2021/03/03 11:59:54;;;;;;;1.70;1.05;;;10.50;46.80;;;;;;4863497;29;20037;-72
2021/03/03 12:02:20;;;;;;;1.77;0.85;;;10.40;46.70;;;;;;4863344;29;20065;-69
2021/03/03 12:04:46;;;;;;;4.53;1.25;;;10.40;46.80;;;;;;4862504;29;20041;-71
2021/03/03 12:07:12;;;;;;;2.00;1.08;;;10.40;46.90;;;;;;4862302;29;20041;-70
2021/03/03 12:09:38;;;;;;;1.60;0.80;;;10.30;47.00;;;;;;4863267;29;20124;-67
2021/03/03 12:12:04;;;;;;;1.55;1.05;;;10.20;47.00;;;;;;4862138;29;20060;-71
2021/03/03 12:14:31;;;;;;;1.52;0.93;;;10.10;47.10;;;;;;4861936;29;20140;-70
2021/03/03 12:16:57;;;;;;;2.20;0.80;;;10.20;47.30;;;;;;4863373;29;20029;-72
2021/03/03 12:19:23;;;;;;;2.40;0.93;;;10.10;47.40;;;;;;4862060;29;20227;-71
2021/03/03 12:21:49;;;;;;;2.72;1.17;;;10.10;47.50;;;;;;4863553;29;20113;-73
2021/03/03 12:24:15;;;;;;;3.83;1.10;;;10.10;47.70;;;;;;4862155;29;20129;-73
2021/03/03 12:26:41;;;;;;;2.60;0.93;;;10.10;47.70;;;;;;4863353;29;20128;-71
2021/03/03 12:29:07;;;;;;;2.60;1.02;;;10.10;47.80;;;;;;4861967;29;20044;-72
2021/03/03 12:31:33;;;;;;;2.97;1.30;;;10.10;47.70;;;;;;4863062;29;20146;-71
2021/03/03 12:33:59;;;;;;;1.52;0.70;;;10.00;47.60;;;;;;4862886;29;20129;-71
2021/03/03 12:36:25;;;;;;;2.17;1.15;;;10.00;47.50;;;;;;4863145;29;20068;-73
2021/03/03 12:38:51;;;;;;;3.03;1.13;;;10.00;47.70;;;;;;4862888;29;20038;-70
2021/03/03 12:41:17;;;;;;;5.30;1.00;;;9.90;47.70;;;;;;4863638;29;20041;-69
2021/03/03 12:43:43;;;;;;;3.28;1.15;;;10.00;48.00;;;;;;4861613;29;20049;-71
2021/03/03 12:46:09;;;;;;;4.50;1.23;;;9.90;47.70;;;;;;4862907;29;20042;-70
2021/03/03 12:48:35;;;;;;;1.65;0.65;;;9.90;47.60;;;;;;4861531;29;20427;-69
2021/03/03 12:51:01;;;;;;;2.50;1.00;;;9.90;47.70;;;;;;4863037;29;20129;-71
2021/03/03 12:53:27;;;;;;;2.80;1.55;;;9.80;47.70;;;;;;4862565;29;20124;-71
2021/03/03 12:55:53;;;;;;;1.52;0.75;;;9.80;47.70;;;;;;4861449;29;20037;-70
2021/03/03 12:58:19;;;;;;;2.42;1.08;;;9.90;47.70;;;;;;4861250;29;20058;-72
2021/03/03 13:00:45;;;;;;;2.85;0.90;;;9.90;47.70;;;;;;4862653;29;20076;-72